createdAt,value
2018-07-31T00:00:57.333Z,87.29
2018-07-31T00:01:57.900Z,87.38
2018-07-31T00:02:58.465Z,87.58
2018-07-31T00:03:59.029Z,88.25
2018-07-31T00:04:59.596Z,88.25
2018-07-31T00:06:00.161Z,88.06
2018-07-31T00:07:00.726Z,88.15
2018-07-31T00:08:01.295Z,88.25
2018-07-31T00:09:01.878Z,88.73
2018-07-31T00:10:02.444Z,88.54
2018-07-31T00:11:03.008Z,88.21
2018-07-31T00:12:03.583Z,88.35
2018-07-31T00:13:04.145Z,88.02
2018-07-31T00:14:04.710Z,88.11
2018-07-31T00:15:05.277Z,88.35
2018-07-31T00:16:05.842Z,88.06
2018-07-31T00:17:06.407Z,88.31
2018-07-31T00:18:06.972Z,88.21
2018-07-31T00:19:07.539Z,89.07
2018-07-31T00:20:08.125Z,88.79
2018-07-31T00:21:08.691Z,89.37
2018-07-31T00:22:09.255Z,89.17
2018-07-31T00:23:09.820Z,89.37
2018-07-31T00:24:10.385Z,89.07
2018-07-31T00:25:10.949Z,89.07
2018-07-31T00:26:11.559Z,89.65
2018-07-31T00:27:12.083Z,89.47
2018-07-31T00:28:12.648Z,89.75
2018-07-31T00:29:13.213Z,89.75
2018-07-31T00:30:13.777Z,90.23
2018-07-31T00:31:14.343Z,89.95
2018-07-31T00:32:14.910Z,89.65
2018-07-31T00:33:15.494Z,89.90
2018-07-31T00:34:16.084Z,90.23
2018-07-31T00:35:16.644Z,90.67
2018-07-31T00:36:17.211Z,90.48
2018-07-31T00:37:17.808Z,90.87
2018-07-31T00:38:18.398Z,91.06
2018-07-31T00:39:18.982Z,90.67
2018-07-31T00:40:19.547Z,90.96
2018-07-31T00:41:20.112Z,91.25
2018-07-31T00:42:20.676Z,91.35
2018-07-31T00:43:21.263Z,91.25
2018-07-31T00:44:21.827Z,90.96
2018-07-31T00:45:22.413Z,91.02
2018-07-31T00:46:22.978Z,91.11
2018-07-31T00:47:23.542Z,91.20
2018-07-31T00:48:24.108Z,91.30
2018-07-31T00:49:24.673Z,91.11
2018-07-31T00:50:25.236Z,91.50
2018-07-31T00:51:25.803Z,91.50
2018-07-31T00:52:26.369Z,91.30
2018-07-31T00:53:26.954Z,91.30
2018-07-31T00:54:27.518Z,91.50
2018-07-31T00:55:28.085Z,91.78
2018-07-31T00:56:28.648Z,91.98
2018-07-31T00:57:29.212Z,91.98
2018-07-31T00:58:29.778Z,92.36
2018-07-31T00:59:30.341Z,92.36
2018-07-31T01:00:30.908Z,92.27
2018-07-31T01:01:31.472Z,92.46
2018-07-31T01:02:32.041Z,92.32
2018-07-31T01:03:32.602Z,92.75
2018-07-31T01:04:33.170Z,92.71
2018-07-31T01:05:33.755Z,92.80
2018-07-31T01:06:34.318Z,93.28
2018-07-31T01:07:34.904Z,93.48
2018-07-31T01:08:35.475Z,93.28
2018-07-31T01:09:36.033Z,93.28
2018-07-31T01:10:36.601Z,93.38
2018-07-31T01:11:37.163Z,93.48
2018-07-31T01:12:37.728Z,93.57
2018-07-31T01:13:38.293Z,93.57
2018-07-31T01:14:38.868Z,93.48
2018-07-31T01:15:39.423Z,93.66
2018-07-31T01:16:39.988Z,93.76
2018-07-31T01:17:40.552Z,93.76
2018-07-31T01:18:41.118Z,94.24
2018-07-31T01:19:41.704Z,94.44
2018-07-31T01:20:42.272Z,94.63
2018-07-31T01:21:42.835Z,94.73
2018-07-31T01:22:43.398Z,94.82
2018-07-31T01:23:43.963Z,94.82
2018-07-31T01:24:44.527Z,95.02
2018-07-31T01:25:45.095Z,94.73
2018-07-31T01:26:45.658Z,94.73
2018-07-31T01:27:46.221Z,94.63
2018-07-31T01:28:46.786Z,94.54
2018-07-31T01:29:47.350Z,94.92
2018-07-31T01:30:47.916Z,95.11
2018-07-31T01:31:48.480Z,94.82
2018-07-31T01:32:49.044Z,94.82
2018-07-31T01:33:49.635Z,95.02
2018-07-31T01:34:50.194Z,94.82
2018-07-31T01:35:50.758Z,94.92
2018-07-31T01:36:51.321Z,94.73
2018-07-31T01:37:51.886Z,94.82
2018-07-31T01:38:52.449Z,94.63
2018-07-31T01:39:53.036Z,95.31
2018-07-31T01:40:53.620Z,95.11
2018-07-31T01:41:54.189Z,95.26
2018-07-31T01:42:54.751Z,94.92
2018-07-31T01:43:55.318Z,95.45
2018-07-31T01:44:55.904Z,95.45
2018-07-31T01:45:56.535Z,95.55
2018-07-31T01:46:57.053Z,95.36
2018-07-31T01:47:57.617Z,95.50
2018-07-31T01:48:58.185Z,95.36
2018-07-31T01:49:58.785Z,95.31
2018-07-31T01:50:59.351Z,95.45
2018-07-31T01:51:59.920Z,95.64
2018-07-31T01:53:00.481Z,95.36
2018-07-31T01:54:01.048Z,95.26
2018-07-31T01:55:01.610Z,95.26
2018-07-31T01:56:02.176Z,95.55
2018-07-31T01:57:02.739Z,95.45
2018-07-31T01:58:03.304Z,95.36
2018-07-31T01:59:03.869Z,95.45
2018-07-31T02:00:04.433Z,95.94
2018-07-31T02:01:05.001Z,96.12
2018-07-31T02:02:05.571Z,96.12
2018-07-31T02:03:06.149Z,96.42
2018-07-31T02:04:06.734Z,96.32
2018-07-31T02:05:07.298Z,96.22
2018-07-31T02:06:07.866Z,96.03
2018-07-31T02:07:08.428Z,96.42
2018-07-31T02:08:08.993Z,96.03
2018-07-31T02:09:09.556Z,96.51
2018-07-31T02:10:10.121Z,96.12
2018-07-31T02:11:10.684Z,96.32
2018-07-31T02:12:11.248Z,96.22
2018-07-31T02:13:11.815Z,96.99
2018-07-31T02:14:12.379Z,96.80
2018-07-31T02:15:12.945Z,96.89
2018-07-31T02:16:13.510Z,97.47
2018-07-31T02:17:14.140Z,97.42
2018-07-31T02:18:14.658Z,97.24
2018-07-31T02:19:15.222Z,96.89
2018-07-31T02:20:15.810Z,97.42
2018-07-31T02:21:16.373Z,97.14
2018-07-31T02:22:16.938Z,97.72
2018-07-31T02:23:17.504Z,98.00
2018-07-31T02:24:18.067Z,97.62
2018-07-31T02:25:18.632Z,97.91
2018-07-31T02:26:19.195Z,97.52
2018-07-31T02:27:19.810Z,97.24
2018-07-31T02:28:20.508Z,97.14
2018-07-31T02:29:20.957Z,97.52
2018-07-31T02:30:21.541Z,97.62
2018-07-31T02:31:22.106Z,97.52
2018-07-31T02:32:22.670Z,98.10
2018-07-31T02:33:23.234Z,97.81
2018-07-31T02:34:23.801Z,97.33
2018-07-31T02:35:24.383Z,97.81
2018-07-31T02:36:24.970Z,97.81
2018-07-31T02:37:25.533Z,98.14
2018-07-31T02:38:26.099Z,98.63
2018-07-31T02:39:26.665Z,98.54
2018-07-31T02:40:27.228Z,98.72
2018-07-31T02:41:27.798Z,98.54
2018-07-31T02:42:28.377Z,98.72
2018-07-31T02:43:28.942Z,98.54
2018-07-31T02:44:29.506Z,98.72
2018-07-31T02:45:30.069Z,99.30
2018-07-31T02:46:30.633Z,99.01
2018-07-31T02:47:31.197Z,99.69
2018-07-31T02:48:31.762Z,99.78
2018-07-31T02:49:32.325Z,99.99
2018-07-31T02:50:32.898Z,99.78
2018-07-31T02:51:33.481Z,99.99
2018-07-31T02:52:34.067Z,99.99
2018-07-31T02:53:34.632Z,99.98
2018-07-31T02:54:35.217Z,99.88
2018-07-31T02:55:35.780Z,99.99
2018-07-31T02:56:36.344Z,99.98
2018-07-31T02:57:36.930Z,99.40
2018-07-31T02:58:37.494Z,99.88
2018-07-31T02:59:38.058Z,99.49
2018-07-31T03:00:38.624Z,99.78
2018-07-31T03:01:39.196Z,99.59
2018-07-31T03:02:39.776Z,99.78
2018-07-31T03:03:40.345Z,99.88
2018-07-31T03:04:40.906Z,99.88
2018-07-31T03:05:41.495Z,99.99
2018-07-31T03:06:42.055Z,99.78
2018-07-31T03:07:42.617Z,99.99
2018-07-31T03:08:43.204Z,99.78
2018-07-31T03:09:43.767Z,99.99
2018-07-31T03:10:44.352Z,99.99
2018-07-31T03:11:44.916Z,99.99
2018-07-31T03:12:45.481Z,99.99
2018-07-31T03:13:46.065Z,99.99
2018-07-31T03:14:46.632Z,99.99
2018-07-31T03:15:47.215Z,99.99
2018-07-31T03:16:47.801Z,99.99
2018-07-31T03:17:48.364Z,99.99
2018-07-31T03:18:48.928Z,99.99
2018-07-31T03:19:49.498Z,99.99
2018-07-31T03:20:50.058Z,99.99
2018-07-31T03:21:50.620Z,99.99
2018-07-31T03:22:51.182Z,99.99
2018-07-31T03:23:51.746Z,99.99
2018-07-31T03:24:52.309Z,99.99
2018-07-31T03:25:52.874Z,99.99
2018-07-31T03:26:53.438Z,99.99
2018-07-31T03:27:54.005Z,99.99
2018-07-31T03:28:54.564Z,99.99
2018-07-31T03:29:55.132Z,99.99
2018-07-31T03:30:55.695Z,99.99
2018-07-31T03:31:56.260Z,99.99
2018-07-31T03:32:56.845Z,99.99
2018-07-31T03:33:57.411Z,99.99
2018-07-31T03:34:57.976Z,99.99
2018-07-31T03:35:58.561Z,99.99
2018-07-31T03:36:59.125Z,99.99
2018-07-31T03:37:59.712Z,99.99
2018-07-31T03:39:00.278Z,99.99
2018-07-31T03:40:00.843Z,99.99
2018-07-31T03:41:01.408Z,99.99
2018-07-31T03:42:01.972Z,99.99
2018-07-31T03:43:02.537Z,99.99
2018-07-31T03:44:03.103Z,99.99
2018-07-31T03:45:03.670Z,99.99
2018-07-31T03:46:04.256Z,99.99
2018-07-31T03:47:04.823Z,99.99
2018-07-31T03:48:05.388Z,99.99
2018-07-31T03:49:05.952Z,99.99
2018-07-31T03:50:06.576Z,99.99
2018-07-31T03:51:07.088Z,99.99
2018-07-31T03:52:07.652Z,99.99
2018-07-31T03:53:08.218Z,99.99
2018-07-31T03:54:08.784Z,99.99
2018-07-31T03:55:09.350Z,99.99
2018-07-31T03:56:09.917Z,99.99
2018-07-31T03:57:10.485Z,99.99
2018-07-31T03:58:11.054Z,99.99
2018-07-31T03:59:11.620Z,99.99
2018-07-31T04:00:12.190Z,99.99
2018-07-31T04:01:12.776Z,99.99
2018-07-31T04:02:13.368Z,99.99
2018-07-31T04:03:13.930Z,99.99
2018-07-31T04:04:14.498Z,99.99
2018-07-31T04:05:15.087Z,99.99
2018-07-31T04:06:15.652Z,99.99
2018-07-31T04:07:16.247Z,99.99
2018-07-31T04:08:16.818Z,99.99
2018-07-31T04:09:17.403Z,99.99
2018-07-31T04:10:17.969Z,99.99
2018-07-31T04:11:18.538Z,99.99
2018-07-31T04:12:19.106Z,99.99
2018-07-31T04:13:19.688Z,99.99
2018-07-31T04:14:20.262Z,99.99
2018-07-31T04:15:20.882Z,99.99
2018-07-31T04:16:21.450Z,99.99
2018-07-31T04:17:22.020Z,99.99
2018-07-31T04:18:22.587Z,99.99
2018-07-31T04:19:23.155Z,99.99
2018-07-31T04:20:23.722Z,99.99
2018-07-31T04:21:24.291Z,99.99
2018-07-31T04:22:24.865Z,99.99
2018-07-31T04:23:25.448Z,99.99
2018-07-31T04:24:26.015Z,99.99
2018-07-31T04:25:26.581Z,99.99
2018-07-31T04:26:27.151Z,99.99
2018-07-31T04:27:27.723Z,99.99
2018-07-31T04:28:28.307Z,99.99
2018-07-31T04:29:28.875Z,99.99
2018-07-31T04:30:29.466Z,99.99
2018-07-31T04:31:30.033Z,99.99
2018-07-31T04:32:30.605Z,99.99
2018-07-31T04:33:31.168Z,99.99
2018-07-31T04:34:31.737Z,99.99
2018-07-31T04:35:32.303Z,99.99
2018-07-31T04:36:32.871Z,99.99
2018-07-31T04:37:33.440Z,99.99
2018-07-31T04:38:34.010Z,99.99
2018-07-31T04:39:34.579Z,99.99
2018-07-31T04:40:35.145Z,99.99
2018-07-31T04:41:35.714Z,99.99
2018-07-31T04:42:36.283Z,99.99
2018-07-31T04:43:36.852Z,99.99
2018-07-31T04:44:37.422Z,99.99
2018-07-31T04:45:37.995Z,99.99
2018-07-31T04:46:38.584Z,99.99
2018-07-31T04:47:39.153Z,99.99
2018-07-31T04:48:39.725Z,99.99
2018-07-31T04:49:40.305Z,99.99
2018-07-31T04:50:40.877Z,99.99
2018-07-31T04:51:41.450Z,98.15
2018-07-31T04:52:42.044Z,96.61
2018-07-31T04:53:42.615Z,95.64
2018-07-31T04:54:43.187Z,95.06
2018-07-31T04:55:43.758Z,94.43
2018-07-31T04:56:44.347Z,93.80
2018-07-31T04:57:44.926Z,92.26
2018-07-31T04:58:45.498Z,92.16
2018-07-31T04:59:46.069Z,92.07
2018-07-31T05:00:46.646Z,92.21
2018-07-31T05:01:47.220Z,89.84
2018-07-31T05:02:47.803Z,88.34
2018-07-31T05:03:48.397Z,86.98
2018-07-31T05:04:48.974Z,85.52
2018-07-31T05:05:49.565Z,84.60
2018-07-31T05:06:50.162Z,83.77
2018-07-31T05:07:50.737Z,82.32
2018-07-31T05:08:51.312Z,81.93
2018-07-31T05:09:51.889Z,81.73
2018-07-31T05:10:52.488Z,81.05
2018-07-31T05:11:53.062Z,80.62
2018-07-31T05:12:53.638Z,80.55
2018-07-31T05:13:54.214Z,79.04
2018-07-31T05:14:54.791Z,77.59
2018-07-31T05:15:55.370Z,77.59
2018-07-31T05:16:55.949Z,77.04
2018-07-31T05:17:56.526Z,76.50
2018-07-31T05:18:57.126Z,75.08
2018-07-31T05:19:57.704Z,73.95
2018-07-31T05:20:58.283Z,72.78
2018-07-31T05:21:58.886Z,72.17
2018-07-31T05:22:59.468Z,71.33
2018-07-31T05:24:00.048Z,70.26
2018-07-31T05:25:00.628Z,68.93
2018-07-31T05:26:01.208Z,69.17
2018-07-31T05:27:01.787Z,68.62
2018-07-31T05:28:02.370Z,66.50
2018-07-31T05:29:02.974Z,65.75
2018-07-31T05:30:03.577Z,65.10
2018-07-31T05:31:04.164Z,64.51
2018-07-31T05:32:04.762Z,64.42
2018-07-31T05:33:05.343Z,64.51
2018-07-31T05:34:05.924Z,64.32
2018-07-31T05:35:06.506Z,64.22
2018-07-31T05:36:07.091Z,63.38
2018-07-31T05:37:07.672Z,63.15
2018-07-31T05:38:08.254Z,63.41
2018-07-31T05:39:08.833Z,63.74
2018-07-31T05:40:09.435Z,64.69
2018-07-31T05:41:10.017Z,66.02
2018-07-31T05:42:10.595Z,67.35
2018-07-31T05:43:11.175Z,67.93
2018-07-31T05:44:11.753Z,68.80
2018-07-31T05:45:12.332Z,69.26
2018-07-31T05:46:12.946Z,69.06
2018-07-31T05:47:13.492Z,69.39
2018-07-31T05:48:14.073Z,68.96
2018-07-31T05:49:14.650Z,69.26
2018-07-31T05:50:15.227Z,69.55
2018-07-31T05:51:15.826Z,70.49
2018-07-31T05:52:16.412Z,70.78
2018-07-31T05:53:17.009Z,71.11
2018-07-31T05:54:17.585Z,70.04
2018-07-31T05:55:18.169Z,69.78
2018-07-31T05:56:18.742Z,69.48
2018-07-31T05:57:19.330Z,69.39
2018-07-31T05:58:19.905Z,69.84
2018-07-31T05:59:20.483Z,70.56
2018-07-31T06:00:21.065Z,70.17
2018-07-31T06:01:21.646Z,69.32
2018-07-31T06:02:22.229Z,68.48
2018-07-31T06:03:22.811Z,67.25
2018-07-31T06:04:23.393Z,67.15
2018-07-31T06:05:23.972Z,66.44
2018-07-31T06:06:24.551Z,67.77
2018-07-31T06:07:25.137Z,68.51
2018-07-31T06:08:25.732Z,69.55
2018-07-31T06:09:26.351Z,70.13
2018-07-31T06:10:26.932Z,70.78
2018-07-31T06:11:27.488Z,71.26
2018-07-31T06:12:28.066Z,71.75
2018-07-31T06:13:28.645Z,72.20
2018-07-31T06:14:29.226Z,72.49
2018-07-31T06:15:29.805Z,72.14
2018-07-31T06:16:30.405Z,72.63
2018-07-31T06:17:30.982Z,71.91
2018-07-31T06:18:31.560Z,72.14
2018-07-31T06:19:32.161Z,71.42
2018-07-31T06:20:32.737Z,71.72
2018-07-31T06:21:33.315Z,71.91
2018-07-31T06:22:33.900Z,71.42
2018-07-31T06:23:34.473Z,71.85
2018-07-31T06:24:35.055Z,72.24
2018-07-31T06:25:35.663Z,72.24
2018-07-31T06:26:36.449Z,71.07
2018-07-31T06:27:37.027Z,71.07
2018-07-31T06:28:37.605Z,71.07
2018-07-31T06:29:38.185Z,71.72
2018-07-31T06:30:38.763Z,72.59
2018-07-31T06:31:39.341Z,73.46
2018-07-31T06:32:39.943Z,73.27
2018-07-31T06:33:40.539Z,73.52
2018-07-31T06:34:41.116Z,74.21
2018-07-31T06:35:41.696Z,74.98
2018-07-31T06:36:42.275Z,74.01
2018-07-31T06:37:42.850Z,74.15
2018-07-31T06:38:43.431Z,74.24
2018-07-31T06:39:44.007Z,73.69
2018-07-31T06:40:44.582Z,72.76
2018-07-31T06:41:45.163Z,71.08
2018-07-31T06:42:45.761Z,69.42
2018-07-31T06:43:46.342Z,69.52
2018-07-31T06:44:46.923Z,69.07
2018-07-31T06:45:47.505Z,67.57
2018-07-31T06:46:48.085Z,66.50
2018-07-31T06:47:48.676Z,66.11
2018-07-31T06:48:49.243Z,65.69
2018-07-31T06:49:49.823Z,65.88
2018-07-31T06:50:50.427Z,66.66
2018-07-31T06:51:51.008Z,65.95
2018-07-31T06:52:51.590Z,64.19
2018-07-31T06:53:52.172Z,64.22
2018-07-31T06:54:52.772Z,63.44
2018-07-31T06:55:53.353Z,62.95
2018-07-31T06:56:53.938Z,63.31
2018-07-31T06:57:54.516Z,64.00
2018-07-31T06:58:55.098Z,64.06
2018-07-31T06:59:55.682Z,64.36
2018-07-31T07:00:56.263Z,64.55
2018-07-31T07:01:56.894Z,64.36
2018-07-31T07:02:57.429Z,64.58
2018-07-31T07:03:58.011Z,63.87
2018-07-31T07:04:58.592Z,63.44
2018-07-31T07:05:59.174Z,62.13
2018-07-31T07:06:59.755Z,60.17
2018-07-31T07:08:00.336Z,60.96
2018-07-31T07:09:00.943Z,62.13
2018-07-31T07:10:01.549Z,59.16
2018-07-31T07:11:02.157Z,58.40
2018-07-31T07:12:02.764Z,56.88
2018-07-31T07:13:03.346Z,55.74
2018-07-31T07:14:03.931Z,55.24
2018-07-31T07:15:04.542Z,55.76
2018-07-31T07:16:05.146Z,54.96
2018-07-31T07:17:05.728Z,53.41
2018-07-31T07:18:06.313Z,52.60
2018-07-31T07:19:06.918Z,53.46
2018-07-31T07:20:07.502Z,53.73
2018-07-31T07:21:08.087Z,53.70
2018-07-31T07:22:08.692Z,55.44
2018-07-31T07:23:09.297Z,55.51
2018-07-31T07:24:09.902Z,56.69
2018-07-31T07:25:10.484Z,56.59
2018-07-31T07:26:11.105Z,55.02
2018-07-31T07:27:11.725Z,54.53
2018-07-31T07:28:12.327Z,54.83
2018-07-31T07:29:12.930Z,55.81
2018-07-31T07:30:13.570Z,56.47
2018-07-31T07:31:14.117Z,55.85
2018-07-31T07:32:14.740Z,55.95
2018-07-31T07:33:15.280Z,55.92
2018-07-31T07:34:15.862Z,56.34
2018-07-31T07:35:16.443Z,56.17
2018-07-31T07:36:17.026Z,56.01
2018-07-31T07:37:17.608Z,54.98
2018-07-31T07:38:18.192Z,53.83
2018-07-31T07:39:18.775Z,53.33
2018-07-31T07:40:19.425Z,53.46
2018-07-31T07:41:19.948Z,52.60
2018-07-31T07:42:20.530Z,52.21
2018-07-31T07:43:21.116Z,52.28
2018-07-31T07:44:21.703Z,52.31
2018-07-31T07:45:22.310Z,52.72
2018-07-31T07:46:22.892Z,51.57
2018-07-31T07:47:23.477Z,50.12
2018-07-31T07:48:24.124Z,50.31
2018-07-31T07:49:24.677Z,49.82
2018-07-31T07:50:25.276Z,49.08
2018-07-31T07:51:25.884Z,48.39
2018-07-31T07:52:26.469Z,48.51
2018-07-31T07:53:27.055Z,48.00
2018-07-31T07:54:27.642Z,48.98
2018-07-31T07:55:28.251Z,48.49
2018-07-31T07:56:28.842Z,47.72
2018-07-31T07:57:29.430Z,48.39
2018-07-31T07:58:30.018Z,48.19
2018-07-31T07:59:30.605Z,49.01
2018-07-31T08:00:31.194Z,49.01
2018-07-31T08:01:31.784Z,48.54
2018-07-31T08:02:32.372Z,47.16
2018-07-31T08:03:32.959Z,46.26
2018-07-31T08:04:33.548Z,45.79
2018-07-31T08:05:34.133Z,45.79
2018-07-31T08:06:34.719Z,45.82
2018-07-31T08:07:35.304Z,45.23
2018-07-31T08:08:35.891Z,45.27
2018-07-31T08:09:36.527Z,44.31
2018-07-31T08:10:37.067Z,44.31
2018-07-31T08:11:37.654Z,44.46
2018-07-31T08:12:38.242Z,45.13
2018-07-31T08:13:38.828Z,45.79
2018-07-31T08:14:39.436Z,45.87
2018-07-31T08:15:40.025Z,46.54
2018-07-31T08:16:40.605Z,46.81
2018-07-31T08:17:41.189Z,46.91
2018-07-31T08:18:41.774Z,47.58
2018-07-31T08:19:42.366Z,47.34
2018-07-31T08:20:42.965Z,48.59
2018-07-31T08:21:43.569Z,49.55
2018-07-31T08:22:44.153Z,49.65
2018-07-31T08:23:44.759Z,50.51
2018-07-31T08:24:45.340Z,49.63
2018-07-31T08:25:45.922Z,49.48
2018-07-31T08:26:46.527Z,49.60
2018-07-31T08:27:47.169Z,49.58
2018-07-31T08:28:47.708Z,49.95
2018-07-31T08:29:48.291Z,50.44
2018-07-31T08:30:48.876Z,50.73
2018-07-31T08:31:49.462Z,51.03
2018-07-31T08:32:50.048Z,51.07
2018-07-31T08:33:50.631Z,51.59
2018-07-31T08:34:51.216Z,51.20
2018-07-31T08:35:51.802Z,51.59
2018-07-31T08:36:52.388Z,51.62
2018-07-31T08:37:52.970Z,51.69
2018-07-31T08:38:53.558Z,51.91
2018-07-31T08:39:54.163Z,51.96
2018-07-31T08:40:54.769Z,52.55
2018-07-31T08:41:55.355Z,52.55
2018-07-31T08:42:55.939Z,52.64
2018-07-31T08:43:56.522Z,52.45
2018-07-31T08:44:57.107Z,52.57
2018-07-31T08:45:57.692Z,51.72
2018-07-31T08:46:58.295Z,51.64
2018-07-31T08:47:58.901Z,51.45
2018-07-31T08:48:59.505Z,50.93
2018-07-31T08:50:00.105Z,50.93
2018-07-31T08:51:00.708Z,50.54
2018-07-31T08:52:01.289Z,52.18
2018-07-31T08:53:01.872Z,51.93
2018-07-31T08:54:02.455Z,52.81
2018-07-31T08:55:03.038Z,52.50
2018-07-31T08:56:03.621Z,53.20
2018-07-31T08:57:04.331Z,53.57
2018-07-31T08:58:04.786Z,53.94
2018-07-31T08:59:05.367Z,54.89
2018-07-31T09:00:05.949Z,54.99
2018-07-31T09:01:06.528Z,54.30
2018-07-31T09:02:07.134Z,54.50
2018-07-31T09:03:07.735Z,54.40
2018-07-31T09:04:08.340Z,54.99
2018-07-31T09:05:08.920Z,55.06
2018-07-31T09:06:09.501Z,55.16
2018-07-31T09:07:10.081Z,55.16
2018-07-31T09:08:10.668Z,55.62
2018-07-31T09:09:11.243Z,55.81
2018-07-31T09:10:11.822Z,56.54
2018-07-31T09:11:12.403Z,56.86
2018-07-31T09:12:12.986Z,57.03
2018-07-31T09:13:13.562Z,56.84
2018-07-31T09:14:14.144Z,56.76
2018-07-31T09:15:14.725Z,56.76
2018-07-31T09:16:15.305Z,56.60
2018-07-31T09:17:15.889Z,56.40
2018-07-31T09:18:16.470Z,56.33
2018-07-31T09:19:17.056Z,55.45
2018-07-31T09:20:17.633Z,55.55
2018-07-31T09:21:18.216Z,56.10
2018-07-31T09:22:18.817Z,55.84
2018-07-31T09:23:19.384Z,55.57
2018-07-31T09:24:20.008Z,55.08
2018-07-31T09:25:20.547Z,55.28
2018-07-31T09:26:21.128Z,54.99
2018-07-31T09:27:21.706Z,55.35
2018-07-31T09:28:22.287Z,54.86
2018-07-31T09:29:22.866Z,54.17
2018-07-31T09:30:23.454Z,54.38
2018-07-31T09:31:24.030Z,54.77
2018-07-31T09:32:24.611Z,55.26
2018-07-31T09:33:25.197Z,53.88
2018-07-31T09:34:25.779Z,54.01
2018-07-31T09:35:26.369Z,53.64
2018-07-31T09:36:26.959Z,52.79
2018-07-31T09:37:27.535Z,52.40
2018-07-31T09:38:28.120Z,51.54
2018-07-31T09:39:28.722Z,51.64
2018-07-31T09:40:29.328Z,51.25
2018-07-31T09:41:29.911Z,51.34
2018-07-31T09:42:30.522Z,51.15
2018-07-31T09:43:31.103Z,51.83
2018-07-31T09:44:31.688Z,51.46
2018-07-31T09:45:32.272Z,50.81
2018-07-31T09:46:32.856Z,49.95
2018-07-31T09:47:33.438Z,49.73
2018-07-31T09:51:03.698Z,49.87
2018-07-31T09:52:04.282Z,49.65
2018-07-31T09:53:04.864Z,49.77
2018-07-31T09:54:05.448Z,49.55
2018-07-31T09:55:06.033Z,49.75
2018-07-31T09:56:06.618Z,49.58
2018-07-31T09:57:07.221Z,48.50
2018-07-31T09:58:07.808Z,49.41
2018-07-31T09:59:08.416Z,49.70
2018-07-31T10:00:08.980Z,49.43
2018-07-31T10:01:09.566Z,48.74
2018-07-31T10:02:10.152Z,48.84
2018-07-31T10:03:10.740Z,48.82
2018-07-31T10:04:11.322Z,49.36
2018-07-31T10:05:11.910Z,51.10
2018-07-31T10:06:12.489Z,50.81
2018-07-31T10:07:13.095Z,50.54
2018-07-31T10:08:13.677Z,50.63
2018-07-31T10:09:14.260Z,50.63
2018-07-31T10:10:14.843Z,49.97
2018-07-31T10:11:15.450Z,50.46
2018-07-31T10:12:16.130Z,49.80
2018-07-31T10:13:16.636Z,49.21
2018-07-31T10:14:17.220Z,49.43
2018-07-31T10:15:17.807Z,49.82
2018-07-31T10:16:18.409Z,50.19
2018-07-31T10:17:18.995Z,50.85
2018-07-31T10:18:19.644Z,50.16
2018-07-31T10:19:20.174Z,50.66
2018-07-31T10:20:20.777Z,50.37
2018-07-31T10:21:21.361Z,50.93
2018-07-31T10:22:21.947Z,51.34
2018-07-31T10:23:22.532Z,50.98
2018-07-31T10:24:23.159Z,50.78
2018-07-31T10:25:23.706Z,51.15
2018-07-31T10:26:24.314Z,50.78
2018-07-31T10:27:24.898Z,50.39
2018-07-31T10:28:25.484Z,50.21
2018-07-31T10:29:26.069Z,49.46
2018-07-31T10:30:26.675Z,49.33
2018-07-31T10:31:27.261Z,49.63
2018-07-31T10:32:27.845Z,49.73
2018-07-31T10:33:28.430Z,49.99
2018-07-31T10:34:29.014Z,49.73
2018-07-31T10:35:29.597Z,49.55
2018-07-31T10:36:30.185Z,49.06
2018-07-31T10:37:30.972Z,49.55
2018-07-31T10:38:31.520Z,49.26
2018-07-31T10:39:32.129Z,49.18
2018-07-31T10:40:32.720Z,48.89
2018-07-31T10:41:33.325Z,48.59
2018-07-31T10:42:33.930Z,48.86
2018-07-31T10:43:34.544Z,48.89
2018-07-31T10:44:35.136Z,48.89
2018-07-31T10:45:35.866Z,48.49
2018-07-31T10:46:36.450Z,48.99
2018-07-31T10:47:37.035Z,48.86
2018-07-31T10:48:37.620Z,48.86
2018-07-31T10:49:38.205Z,49.65
2018-07-31T10:50:38.853Z,48.94
2018-07-31T10:51:39.382Z,49.65
2018-07-31T10:52:39.961Z,48.59
2018-07-31T10:53:40.547Z,48.49
2018-07-31T10:54:41.132Z,47.92
2018-07-31T10:55:41.718Z,48.27
2018-07-31T10:56:42.305Z,46.69
2018-07-31T10:57:42.912Z,46.77
2018-07-31T10:58:43.540Z,47.24
2018-07-31T10:59:44.215Z,47.46
2018-07-31T11:00:44.706Z,46.99
2018-07-31T11:01:45.312Z,46.03
2018-07-31T11:02:45.963Z,46.67
2018-07-31T11:03:46.508Z,46.89
2018-07-31T11:04:47.088Z,46.69
2018-07-31T11:05:47.674Z,46.59
2018-07-31T11:06:48.261Z,46.69
2018-07-31T11:07:48.847Z,47.24
2018-07-31T11:08:49.433Z,47.41
2018-07-31T11:09:50.018Z,48.49
2018-07-31T11:10:50.625Z,47.44
2018-07-31T11:11:51.211Z,47.63
2018-07-31T11:12:51.818Z,47.53
2018-07-31T11:13:52.404Z,47.75
2018-07-31T11:14:52.990Z,47.06
2018-07-31T11:15:53.579Z,47.71
2018-07-31T11:16:54.160Z,47.51
2018-07-31T11:17:54.744Z,47.61
2018-07-31T11:18:55.350Z,47.51
2018-07-31T11:19:55.932Z,47.04
2018-07-31T11:20:56.542Z,47.02
2018-07-31T11:21:57.100Z,46.55
2018-07-31T11:22:57.685Z,46.77
2018-07-31T11:23:58.272Z,46.50
2018-07-31T11:24:58.857Z,46.40
2018-07-31T11:25:59.444Z,46.22
2018-07-31T11:27:00.050Z,45.34
2018-07-31T11:28:00.633Z,45.36
2018-07-31T11:29:01.216Z,45.63
2018-07-31T11:30:01.802Z,45.93
2018-07-31T11:31:02.386Z,45.56
2018-07-31T11:32:02.971Z,45.18
2018-07-31T11:33:03.630Z,45.28
2018-07-31T11:34:04.161Z,45.28
2018-07-31T11:35:04.741Z,45.65
2018-07-31T11:36:05.325Z,45.75
2018-07-31T11:37:05.908Z,45.67
2018-07-31T11:38:06.494Z,45.36
2018-07-31T11:39:07.078Z,45.73
2018-07-31T11:40:07.662Z,46.00
2018-07-31T11:41:08.246Z,45.93
2018-07-31T11:42:08.879Z,45.26
2018-07-31T11:43:09.462Z,45.38
2018-07-31T11:44:10.047Z,44.69
2018-07-31T11:45:10.630Z,44.89
2018-07-31T11:46:11.216Z,45.48
2018-07-31T11:47:11.801Z,45.28
2018-07-31T11:48:12.386Z,44.22
2018-07-31T11:49:12.972Z,44.39
2018-07-31T11:50:13.619Z,44.22
2018-07-31T11:51:14.183Z,43.74
2018-07-31T11:52:14.764Z,43.82
2018-07-31T11:53:15.363Z,44.39
2018-07-31T11:54:15.951Z,45.34
2018-07-31T11:55:16.537Z,45.38
2018-07-31T11:56:17.124Z,45.08
2018-07-31T11:57:17.710Z,45.10
2018-07-31T11:58:18.304Z,44.83
2018-07-31T11:59:18.882Z,44.06
2018-07-31T12:00:19.469Z,43.39
2018-07-31T12:01:20.056Z,42.92
2018-07-31T12:02:20.641Z,42.88
2018-07-31T12:03:21.226Z,44.02
2018-07-31T12:04:21.844Z,44.12
2018-07-31T12:05:22.400Z,43.84
2018-07-31T12:06:22.986Z,43.73
2018-07-31T12:07:23.572Z,44.34
2018-07-31T12:08:24.158Z,43.96
2018-07-31T12:09:24.762Z,42.90
2018-07-31T12:10:25.368Z,43.57
2018-07-31T12:11:25.996Z,43.69
2018-07-31T12:12:26.538Z,42.80
2018-07-31T12:13:27.122Z,42.80
2018-07-31T12:14:27.706Z,42.62
2018-07-31T12:15:28.289Z,41.33
2018-07-31T12:16:28.872Z,42.22
2018-07-31T12:17:29.457Z,41.93
2018-07-31T12:18:30.041Z,41.93
2018-07-31T12:19:30.628Z,42.32
2018-07-31T12:20:31.214Z,42.13
2018-07-31T12:21:31.800Z,42.60
2018-07-31T12:22:32.385Z,42.76
2018-07-31T12:23:32.971Z,43.10
2018-07-31T12:24:33.556Z,42.82
2018-07-31T12:25:34.161Z,42.03
2018-07-31T12:26:34.745Z,42.30
2018-07-31T12:27:35.330Z,42.58
2018-07-31T12:28:35.935Z,42.48
2018-07-31T12:29:36.520Z,42.36
2018-07-31T12:30:37.105Z,42.83
2018-07-31T12:31:37.695Z,42.96
2018-07-31T12:32:38.277Z,42.19
2018-07-31T12:33:38.862Z,42.07
2018-07-31T12:34:39.448Z,42.46
2018-07-31T12:35:40.032Z,41.99
2018-07-31T12:36:40.615Z,42.01
2018-07-31T12:37:41.204Z,41.71
2018-07-31T12:38:41.794Z,41.89
2018-07-31T12:39:42.375Z,42.38
2018-07-31T12:40:42.978Z,42.97
2018-07-31T12:41:43.589Z,42.76
2018-07-31T12:42:44.172Z,42.74
2018-07-31T12:43:44.761Z,42.64
2018-07-31T12:44:45.361Z,42.68
2018-07-31T12:45:45.945Z,42.58
2018-07-31T12:46:46.532Z,42.58
2018-07-31T12:47:47.132Z,42.58
2018-07-31T12:48:47.739Z,42.01
2018-07-31T12:49:48.320Z,42.26
2018-07-31T12:50:48.905Z,42.38
2018-07-31T12:51:49.490Z,41.79
2018-07-31T12:52:50.072Z,42.38
2018-07-31T12:53:50.657Z,42.40
2018-07-31T12:54:51.240Z,42.21
2018-07-31T12:55:51.823Z,41.83
2018-07-31T12:56:52.407Z,41.02
2018-07-31T12:57:52.992Z,41.20
2018-07-31T12:58:53.575Z,41.99
2018-07-31T12:59:54.173Z,41.77
2018-07-31T13:00:54.747Z,41.87
2018-07-31T13:01:55.333Z,41.89
2018-07-31T13:02:55.923Z,41.47